Leewood, West Virginia
Current Conditions -  °F | °C
As of 1:54 AM on Monday 24 Nov 2014 (Local Time) from KCRW Reporting Station
Overcast Overcast  
Wind Chill: 18°   Ceiling: 5000
Heat Index: 18°   Visibility: 10mi
Dew Point:   Wind: 18mph
Humidity: 56%   Direction: 200°SSW
Pressure: 29.46"   Gusts: 28mph
Location:  38.07°N, 81.45°W
Report Text: KCRW 240654Z 20016G24KT 10SM BKN050 BKN055 OVC070 18/09 A2946 RMK AO2 SLP970 T01830094
Loading
Personal Weather Stations






























Interactive Weather Map New forecast layout! Learn more

10-Day Weather Forecast

Advertisements
Track Severe Weather on mobile